Overseas Milos — V7WR8 — position and weather

sailwx.info

Track history (hours):
 
Tides and Currents Weather Stations Pressure Air Temp Water Temp Dewpoint Dewpoint Depression Visibility Wind Speed Wind Dir Waves Ship Positions

Overseas Milos

Last reported at 2015-Dec-13 22:30 UTC. Time now 2016-Feb-14 16:54 UTC.
Position S 25°43' W 048°19'.
Warning: this ship's position is months out of date.

Length 183 m; draft 9.8 m.

Type: Tanker. MMSI: 538004376.

Date/timePositionNaut miles runAvg speedWind from/ knotsBaromVisibWave heightAir tempDewpointWater temp
2015-Dec-13 22:30S 25°43' W 048°19'0 0.0
2015-Dec-13 21:12S 25°43' W 048°19'0 0.0
2015-Dec-13 20:30S 25°43' W 048°19'  
2015-Dec-09 05:18S 34°46' W 057°34'810.4
2015-Dec-09 04:33S 34°44' W 057°44'7 6.8
2015-Dec-09 03:33S 34°43' W 057°52'0 0.1
2015-Dec-09 02:33S 34°43' W 057°52'0 0.1
2015-Dec-09 01:33S 34°43' W 057°52'0 0.1
2015-Dec-09 00:33S 34°43' W 057°52'0 0.0
2015-Dec-08 22:33S 34°43' W 057°52'0 0.1
2015-Dec-08 21:33S 34°43' W 057°52'0 0.0
2015-Dec-08 20:33S 34°43' W 057°52'0 0.0
2015-Dec-08 19:33S 34°43' W 057°52'0 0.0
2015-Dec-08 18:33S 34°43' W 057°52'0 0.0
2015-Dec-08 17:33S 34°43' W 057°52'0 0.0
2015-Dec-08 16:33S 34°43' W 057°52'0 0.1
2015-Dec-08 15:24S 34°43' W 057°52'6 7.2
2015-Dec-08 14:33S 34°41' W 057°59'1111.3
2015-Dec-08 13:33S 34°37' W 058°12'109 9.0
2015-Dec-08 01:26S 33°30' W 059°55'910.2
2015-Dec-08 00:34S 33°25' W 060°04'  
Track history (hours):
 
Tides and Currents Weather Stations Pressure Air Temp Water Temp Dewpoint Dewpoint Depression Visibility Wind Speed Wind Dir Waves Ship Positions

Overseas Milos

Last reported at 2015-Dec-13 22:30 UTC. Time now 2016-Feb-14 16:54 UTC.
Position S 25°43' W 048°19'.
Warning: this ship's position is months out of date.

Length 183 m; draft 9.8 m.

Type: Tanker. MMSI: 538004376.

Date/timePositionNaut miles runAvg speedWind from/ knotsBaromVisibWave heightAir tempDewpointWater temp
2015-Dec-13 22:30S 25°43' W 048°19'0 0.0
2015-Dec-13 21:12S 25°43' W 048°19'0 0.0
2015-Dec-13 20:30S 25°43' W 048°19'  
2015-Dec-09 05:18S 34°46' W 057°34'810.4
2015-Dec-09 04:33S 34°44' W 057°44'7 6.8
2015-Dec-09 03:33S 34°43' W 057°52'0 0.1
2015-Dec-09 02:33S 34°43' W 057°52'0 0.1
2015-Dec-09 01:33S 34°43' W 057°52'0 0.1
2015-Dec-09 00:33S 34°43' W 057°52'0 0.0
2015-Dec-08 22:33S 34°43' W 057°52'0 0.1
2015-Dec-08 21:33S 34°43' W 057°52'0 0.0
2015-Dec-08 20:33S 34°43' W 057°52'0 0.0
2015-Dec-08 19:33S 34°43' W 057°52'0 0.0
2015-Dec-08 18:33S 34°43' W 057°52'0 0.0
2015-Dec-08 17:33S 34°43' W 057°52'0 0.0
2015-Dec-08 16:33S 34°43' W 057°52'0 0.1
2015-Dec-08 15:24S 34°43' W 057°52'6 7.2
2015-Dec-08 14:33S 34°41' W 057°59'1111.3
2015-Dec-08 13:33S 34°37' W 058°12'109 9.0
2015-Dec-08 01:26S 33°30' W 059°55'910.2
2015-Dec-08 00:34S 33°25' W 060°04'  

Dump ship's entire track history